Uraga Maru — JD2163 — position and weather

sailwx.info

Track history (hours):
 
Tides and Currents Weather Stations Pressure Air Temp Water Temp Dewpoint Dewpoint Depression Visibility Wind Speed Wind Dir Waves Ship Positions

Uraga Maru

Last reported at 2017-Feb-28 12:33 UTC. Time now 2017-Feb-28 12:54 UTC.
Position N 35°17' E 139°41'.

Length 40 m; draft 2.8 m.

Type: Tug. MMSI: 431101119.

Date/timePositionNaut miles runAvg speedWind from/ knotsBaromVisibWave heightAir tempDewpointWater temp
2017-Feb-28 12:33N 35°17' E 139°41'0 0.0
2017-Feb-28 11:33N 35°17' E 139°41'0 0.0
2017-Feb-28 10:33N 35°17' E 139°41'0 0.0
2017-Feb-28 09:33N 35°17' E 139°41'0 0.3
2017-Feb-28 08:33N 35°17' E 139°41'0 0.1
2017-Feb-28 06:30N 35°17' E 139°41'3 3.6
2017-Feb-28 05:33N 35°16' E 139°45'3 3.0
2017-Feb-28 04:33N 35°19' E 139°43'1111.3
2017-Feb-28 03:33N 35°29' E 139°50'5 1.5
2017-Feb-28 00:10N 35°29' E 139°56'6 7.4
2017-Feb-27 23:19N 35°27' E 139°49'911.8
2017-Feb-27 22:34N 35°19' E 139°44'9 9.0
2017-Feb-27 21:33N 35°10' E 139°47'1 1.0
2017-Feb-27 20:33N 35°11' E 139°46'4 3.7
2017-Feb-27 19:32N 35°13' E 139°43'0 0.0
2017-Feb-27 18:33N 35°13' E 139°43'0 0.0
2017-Feb-27 17:25N 35°13' E 139°43'0 0.0
2017-Feb-27 16:22N 35°13' E 139°43'0 0.0
2017-Feb-27 15:30N 35°13' E 139°43'0 0.0
2017-Feb-27 14:10N 35°13' E 139°43'0 0.0
2017-Feb-27 13:33N 35°13' E 139°43'0 0.0
2017-Feb-27 12:32N 35°13' E 139°43'0 0.0
2017-Feb-27 11:32N 35°13' E 139°43'0 0.0
2017-Feb-27 10:33N 35°13' E 139°43'0 0.0
2017-Feb-27 09:32N 35°13' E 139°43'2 2.1
2017-Feb-27 08:33N 35°14' E 139°45'2 2.1
2017-Feb-27 07:33N 35°13' E 139°43'0 0.0
2017-Feb-27 06:33N 35°13' E 139°43'0 0.0
2017-Feb-27 05:33N 35°13' E 139°43'3 3.5
2017-Feb-27 04:33N 35°15' E 139°46'1110.8
2017-Feb-27 03:34N 35°26' E 139°46'9 4.6
2017-Feb-27 01:34N 35°30' E 139°56'9 8.9
2017-Feb-27 00:33N 35°25' E 139°47'1110.8
2017-Feb-26 23:33N 35°14' E 139°47'2 1.7
2017-Feb-26 22:33N 35°12' E 139°46'7 6.5
2017-Feb-26 21:33N 35°17' E 139°41'0 0.0
2017-Feb-26 20:33N 35°17' E 139°41'0 0.0
2017-Feb-26 19:33N 35°17' E 139°41'0 0.0
2017-Feb-26 18:34N 35°17' E 139°41'0 0.0
2017-Feb-26 17:34N 35°17' E 139°41'0 0.0
2017-Feb-26 16:34N 35°17' E 139°41'0 0.0
2017-Feb-26 15:32N 35°17' E 139°41'0 0.0
2017-Feb-26 14:33N 35°17' E 139°41'0 0.0
2017-Feb-26 13:33N 35°17' E 139°41'0 0.0
2017-Feb-26 06:32N 35°17' E 139°41'0 0.0
2017-Feb-26 05:31N 35°17' E 139°41'0 0.0
2017-Feb-26 04:30N 35°17' E 139°41'0 0.0
2017-Feb-26 03:33N 35°17' E 139°41'4 3.9
2017-Feb-26 02:33N 35°16' E 139°45'4 4.0
2017-Feb-26 01:33N 35°19' E 139°43'9 8.7
2017-Feb-26 00:33N 35°28' E 139°44'0 0.2
2017-Feb-25 23:33N 35°28' E 139°44'0 0.2
2017-Feb-25 22:33N 35°28' E 139°44'0 0.2
2017-Feb-25 21:33N 35°28' E 139°44'0 0.2
2017-Feb-25 20:33N 35°28' E 139°44'0 0.1
2017-Feb-25 19:33N 35°28' E 139°44'0 0.0
2017-Feb-25 18:33N 35°28' E 139°44'0 0.0
2017-Feb-25 17:33N 35°28' E 139°44'0 0.0
2017-Feb-25 16:33N 35°28' E 139°44'0 0.0
2017-Feb-25 15:34N 35°28' E 139°44'0 0.0
2017-Feb-25 14:33N 35°28' E 139°44'0 0.0
2017-Feb-25 13:34N 35°28' E 139°44'0 0.2
2017-Feb-25 12:33N 35°28' E 139°44'0 0.2
2017-Feb-25 11:33N 35°28' E 139°44'0 0.3
2017-Feb-25 10:33N 35°28' E 139°44'0 0.2
2017-Feb-25 09:33N 35°28' E 139°44'0 0.3
2017-Feb-25 08:34N 35°28' E 139°44'0 0.3
2017-Feb-25 07:34N 35°28' E 139°44'0 0.1
2017-Feb-25 06:33N 35°28' E 139°44'0 0.1
2017-Feb-25 05:33N 35°28' E 139°44'0 0.1
2017-Feb-25 04:34N 35°28' E 139°44'0 0.3
2017-Feb-25 03:33N 35°28' E 139°44'0 0.0
2017-Feb-25 02:33N 35°28' E 139°44'0 0.3
2017-Feb-25 01:34N 35°28' E 139°44'2 2.1
2017-Feb-25 00:33N 35°27' E 139°42'0 0.0
2017-Feb-24 23:33N 35°27' E 139°42'0 0.0
2017-Feb-24 22:34N 35°27' E 139°42'2 2.2
2017-Feb-24 21:33N 35°29' E 139°40'5 4.9
2017-Feb-24 20:34N 35°24' E 139°42'7 7.0
2017-Feb-24 19:33N 35°17' E 139°41'0 0.0
2017-Feb-24 18:33N 35°17' E 139°41'0 0.0
2017-Feb-24 17:33N 35°17' E 139°41'0 0.0
2017-Feb-24 16:33N 35°17' E 139°41'0 0.0
2017-Feb-24 15:33N 35°17' E 139°41'0 0.0
2017-Feb-24 14:30N 35°17' E 139°41'0 0.0
2017-Feb-24 13:30N 35°17' E 139°41'0 0.0
2017-Feb-24 12:32N 35°17' E 139°41'0 0.0
2017-Feb-24 11:33N 35°17' E 139°41'0 0.0
2017-Feb-24 10:29N 35°17' E 139°41'0 0.0
2017-Feb-24 09:33N 35°17' E 139°41'0 0.0
2017-Feb-24 08:33N 35°17' E 139°41'0 0.0
2017-Feb-24 07:33N 35°17' E 139°41'0 0.0
2017-Feb-24 06:33N 35°17' E 139°41'0 0.0
2017-Feb-24 05:33N 35°17' E 139°41'2 1.7
2017-Feb-24 04:32N 35°19' E 139°41'5 4.8
2017-Feb-24 03:33N 35°22' E 139°45'1110.5
2017-Feb-24 02:33N 35°11' E 139°47'4 4.3
2017-Feb-24 01:33N 35°16' E 139°45'4 4.3
2017-Feb-24 00:33N 35°17' E 139°41'0 0.0
2017-Feb-23 23:33N 35°17' E 139°41'0 0.0
2017-Feb-23 22:34N 35°17' E 139°41'0 0.0
2017-Feb-23 21:34N 35°17' E 139°41'0 0.0
2017-Feb-23 20:33N 35°17' E 139°41'0 0.0
2017-Feb-23 19:33N 35°17' E 139°41'0 0.0
2017-Feb-23 18:33N 35°17' E 139°41'0 0.0
2017-Feb-23 17:33N 35°17' E 139°41'0 0.0
2017-Feb-23 16:33N 35°17' E 139°41'0 0.0
2017-Feb-23 15:33N 35°17' E 139°41'0 0.0
2017-Feb-23 14:33N 35°17' E 139°41'0 0.0
2017-Feb-23 13:33N 35°17' E 139°41'0 0.0
2017-Feb-23 12:33N 35°17' E 139°41'0 0.0
2017-Feb-23 11:34N 35°17' E 139°41'0 0.0
2017-Feb-23 10:33N 35°17' E 139°41'0 0.0
2017-Feb-23 09:34N 35°17' E 139°41'0 0.0
2017-Feb-23 08:33N 35°17' E 139°41'0 0.0
2017-Feb-23 07:33N 35°17' E 139°41'0 0.0
2017-Feb-23 06:34N 35°17' E 139°41'0 0.0
2017-Feb-23 05:33N 35°17' E 139°41'0 0.0
2017-Feb-23 04:31N 35°17' E 139°41'0 0.0
2017-Feb-23 03:33N 35°17' E 139°41'0 0.0
2017-Feb-23 02:33N 35°17' E 139°41'0 0.0
2017-Feb-23 01:33N 35°17' E 139°41'0 0.0
2017-Feb-23 00:33N 35°17' E 139°41'0 0.0
2017-Feb-22 23:33N 35°17' E 139°41'1 1.0
2017-Feb-22 22:33N 35°18' E 139°42'4 1.5
2017-Feb-22 19:32N 35°13' E 139°43'6 6.1
2017-Feb-22 18:34N 35°19' E 139°43'5 4.7
2017-Feb-22 17:33N 35°23' E 139°40'0 0.0
2017-Feb-22 16:33N 35°23' E 139°40'0 0.0
2017-Feb-22 15:34N 35°23' E 139°40'0 0.0
2017-Feb-22 14:34N 35°23' E 139°40'1 1.3
2017-Feb-22 13:34N 35°24' E 139°39'1 1.3
2017-Feb-22 12:33N 35°23' E 139°40'0 0.0
2017-Feb-22 11:34N 35°23' E 139°40'0 0.0
2017-Feb-22 10:34N 35°23' E 139°40'0 0.0
2017-Feb-22 09:34N 35°23' E 139°40'0 0.0
2017-Feb-22 08:34N 35°23' E 139°40'0 0.0
2017-Feb-22 07:33N 35°23' E 139°40'4 3.9
2017-Feb-22 06:33N 35°19' E 139°40'0 0.2
2017-Feb-22 05:33N 35°19' E 139°40'0 0.3
2017-Feb-22 04:34N 35°19' E 139°40'2 1.1
2017-Feb-22 02:33N 35°17' E 139°41'2 1.8
2017-Feb-22 01:33N 35°18' E 139°39'2 1.9
2017-Feb-22 00:33N 35°17' E 139°41'0 0.0
2017-Feb-21 23:33N 35°17' E 139°41'0 0.0
2017-Feb-21 22:33N 35°17' E 139°41'0 0.0
2017-Feb-21 21:33N 35°17' E 139°41'0 0.0
2017-Feb-21 20:33N 35°17' E 139°41'0 0.0
2017-Feb-21 19:33N 35°17' E 139°41'0 0.0
2017-Feb-21 18:33N 35°17' E 139°41'0 0.0
2017-Feb-21 17:33N 35°17' E 139°41'0 0.0
2017-Feb-21 16:33N 35°17' E 139°41'0 0.0
2017-Feb-21 15:33N 35°17' E 139°41'0 0.0
2017-Feb-21 14:33N 35°17' E 139°41'0 0.0
2017-Feb-21 13:33N 35°17' E 139°41'0 0.0
2017-Feb-21 12:33N 35°17' E 139°41'0 0.0
2017-Feb-21 11:32N 35°17' E 139°41'0 0.0
2017-Feb-21 10:33N 35°17' E 139°41'0 0.0
2017-Feb-21 09:33N 35°17' E 139°41'0 0.0
2017-Feb-21 08:33N 35°17' E 139°41'0 0.0
2017-Feb-21 07:33N 35°17' E 139°41'0 0.0
2017-Feb-21 06:33N 35°17' E 139°41'2 1.9
2017-Feb-21 05:33N 35°18' E 139°39'2 2.2
2017-Feb-21 04:33N 35°18' E 139°42'2 0.5
2017-Feb-21 01:18N 35°17' E 139°41'5 6.5
2017-Feb-21 00:33N 35°22' E 139°42'1010.3
2017-Feb-20 23:33N 35°12' E 139°47'3 2.6
2017-Feb-20 22:33N 35°14' E 139°46'3 3.2
2017-Feb-20 21:33N 35°18' E 139°45'8 7.9
2017-Feb-20 20:33N 35°10' E 139°47'2 2.3
2017-Feb-20 19:33N 35°12' E 139°46'3 3.3
2017-Feb-20 18:33N 35°15' E 139°45'4 4.3
2017-Feb-20 17:33N 35°17' E 139°41'0 0.0
2017-Feb-20 16:33N 35°17' E 139°41'0 0.0
2017-Feb-20 15:33N 35°17' E 139°41'0 0.0
2017-Feb-20 14:33N 35°17' E 139°41'0 0.0
2017-Feb-20 13:33N 35°17' E 139°41'0 0.0
2017-Feb-20 12:33N 35°17' E 139°41'0 0.0
2017-Feb-20 11:33N 35°17' E 139°41'0 0.0
2017-Feb-20 10:33N 35°17' E 139°41'2 1.6
2017-Feb-20 09:33N 35°19' E 139°40'1 0.7
2017-Feb-20 08:33N 35°19' E 139°39'0 0.0
2017-Feb-20 07:33N 35°19' E 139°39'2 2.2
2017-Feb-20 06:34N 35°18' E 139°42'1 1.3
2017-Feb-20 05:33N 35°17' E 139°41'0 0.0
2017-Feb-20 04:32N 35°17' E 139°41'0 0.0
2017-Feb-20 03:33N 35°17' E 139°41'0 0.0
2017-Feb-20 02:27N 35°17' E 139°41'0 0.0
2017-Feb-20 01:32N 35°17' E 139°41'0 0.0
2017-Feb-20 00:33N 35°17' E 139°41'0 0.2
2017-Feb-19 23:33N 35°17' E 139°41'0 0.2
2017-Feb-19 22:33N 35°17' E 139°41'0 0.0
2017-Feb-19 21:33N 35°17' E 139°41'0 0.0
2017-Feb-19 20:33N 35°17' E 139°41'0 0.0
2017-Feb-19 19:33N 35°17' E 139°41'0 0.0
2017-Feb-19 18:33N 35°17' E 139°41'0 0.0
2017-Feb-19 17:33N 35°17' E 139°41'0 0.0
2017-Feb-19 16:33N 35°17' E 139°41'0 0.0
2017-Feb-19 15:33N 35°17' E 139°41'0 0.0
2017-Feb-19 14:33N 35°17' E 139°41'0 0.0
2017-Feb-19 13:33N 35°17' E 139°41'0 0.0
2017-Feb-19 12:33N 35°17' E 139°41'0 0.0
2017-Feb-19 11:33N 35°17' E 139°41'0 0.0
2017-Feb-19 10:33N 35°17' E 139°41'0 0.0
2017-Feb-19 09:33N 35°17' E 139°41'0 0.0
2017-Feb-19 08:33N 35°17' E 139°41'0 0.0
2017-Feb-19 07:33N 35°17' E 139°41'0 0.0
2017-Feb-19 06:33N 35°17' E 139°41'0 0.0
2017-Feb-19 05:33N 35°17' E 139°41'0 0.0
2017-Feb-19 04:33N 35°17' E 139°41'0 0.0
2017-Feb-19 03:33N 35°17' E 139°41'6 5.8
2017-Feb-19 02:33N 35°14' E 139°46'1111.2
2017-Feb-19 01:33N 35°25' E 139°43'5 4.5
2017-Feb-19 00:34N 35°20' E 139°42'7 6.9
2017-Feb-18 23:33N 35°13' E 139°43'0 0.2
2017-Feb-18 22:33N 35°13' E 139°43'0 0.0
2017-Feb-18 21:33N 35°13' E 139°43'4 4.2
2017-Feb-18 20:32N 35°17' E 139°45'4 4.6
2017-Feb-18 19:33N 35°22' E 139°43'5 4.9
2017-Feb-18 18:32N 35°17' E 139°41'0 0.0
2017-Feb-18 17:31N 35°17' E 139°41'0 0.0
2017-Feb-18 16:32N 35°17' E 139°41'0 0.0
2017-Feb-18 15:04N 35°17' E 139°41'0 0.0
2017-Feb-18 14:33N 35°17' E 139°41'0 0.0
2017-Feb-18 13:33N 35°17' E 139°41'  
Track history (hours):
 
Tides and Currents Weather Stations Pressure Air Temp Water Temp Dewpoint Dewpoint Depression Visibility Wind Speed Wind Dir Waves Ship Positions

Uraga Maru

Last reported at 2017-Feb-28 12:33 UTC. Time now 2017-Feb-28 12:54 UTC.
Position N 35°17' E 139°41'.

Length 40 m; draft 2.8 m.

Type: Tug. MMSI: 431101119.

Date/timePositionNaut miles runAvg speedWind from/ knotsBaromVisibWave heightAir tempDewpointWater temp
2017-Feb-28 12:33N 35°17' E 139°41'0 0.0
2017-Feb-28 11:33N 35°17' E 139°41'0 0.0
2017-Feb-28 10:33N 35°17' E 139°41'0 0.0
2017-Feb-28 09:33N 35°17' E 139°41'0 0.3
2017-Feb-28 08:33N 35°17' E 139°41'0 0.1
2017-Feb-28 06:30N 35°17' E 139°41'3 3.6
2017-Feb-28 05:33N 35°16' E 139°45'3 3.0
2017-Feb-28 04:33N 35°19' E 139°43'1111.3
2017-Feb-28 03:33N 35°29' E 139°50'5 1.5
2017-Feb-28 00:10N 35°29' E 139°56'6 7.4
2017-Feb-27 23:19N 35°27' E 139°49'911.8
2017-Feb-27 22:34N 35°19' E 139°44'9 9.0
2017-Feb-27 21:33N 35°10' E 139°47'1 1.0
2017-Feb-27 20:33N 35°11' E 139°46'4 3.7
2017-Feb-27 19:32N 35°13' E 139°43'0 0.0
2017-Feb-27 18:33N 35°13' E 139°43'0 0.0
2017-Feb-27 17:25N 35°13' E 139°43'0 0.0
2017-Feb-27 16:22N 35°13' E 139°43'0 0.0
2017-Feb-27 15:30N 35°13' E 139°43'0 0.0
2017-Feb-27 14:10N 35°13' E 139°43'0 0.0
2017-Feb-27 13:33N 35°13' E 139°43'0 0.0
2017-Feb-27 12:32N 35°13' E 139°43'0 0.0
2017-Feb-27 11:32N 35°13' E 139°43'0 0.0
2017-Feb-27 10:33N 35°13' E 139°43'0 0.0
2017-Feb-27 09:32N 35°13' E 139°43'2 2.1
2017-Feb-27 08:33N 35°14' E 139°45'2 2.1
2017-Feb-27 07:33N 35°13' E 139°43'0 0.0
2017-Feb-27 06:33N 35°13' E 139°43'0 0.0
2017-Feb-27 05:33N 35°13' E 139°43'3 3.5
2017-Feb-27 04:33N 35°15' E 139°46'1110.8
2017-Feb-27 03:34N 35°26' E 139°46'9 4.6
2017-Feb-27 01:34N 35°30' E 139°56'9 8.9
2017-Feb-27 00:33N 35°25' E 139°47'1110.8
2017-Feb-26 23:33N 35°14' E 139°47'2 1.7
2017-Feb-26 22:33N 35°12' E 139°46'7 6.5
2017-Feb-26 21:33N 35°17' E 139°41'0 0.0
2017-Feb-26 20:33N 35°17' E 139°41'0 0.0
2017-Feb-26 19:33N 35°17' E 139°41'0 0.0
2017-Feb-26 18:34N 35°17' E 139°41'0 0.0
2017-Feb-26 17:34N 35°17' E 139°41'0 0.0
2017-Feb-26 16:34N 35°17' E 139°41'0 0.0
2017-Feb-26 15:32N 35°17' E 139°41'0 0.0
2017-Feb-26 14:33N 35°17' E 139°41'0 0.0
2017-Feb-26 13:33N 35°17' E 139°41'0 0.0
2017-Feb-26 06:32N 35°17' E 139°41'0 0.0
2017-Feb-26 05:31N 35°17' E 139°41'0 0.0
2017-Feb-26 04:30N 35°17' E 139°41'0 0.0
2017-Feb-26 03:33N 35°17' E 139°41'4 3.9
2017-Feb-26 02:33N 35°16' E 139°45'4 4.0
2017-Feb-26 01:33N 35°19' E 139°43'9 8.7
2017-Feb-26 00:33N 35°28' E 139°44'0 0.2
2017-Feb-25 23:33N 35°28' E 139°44'0 0.2
2017-Feb-25 22:33N 35°28' E 139°44'0 0.2
2017-Feb-25 21:33N 35°28' E 139°44'0 0.2
2017-Feb-25 20:33N 35°28' E 139°44'0 0.1
2017-Feb-25 19:33N 35°28' E 139°44'0 0.0
2017-Feb-25 18:33N 35°28' E 139°44'0 0.0
2017-Feb-25 17:33N 35°28' E 139°44'0 0.0
2017-Feb-25 16:33N 35°28' E 139°44'0 0.0
2017-Feb-25 15:34N 35°28' E 139°44'0 0.0
2017-Feb-25 14:33N 35°28' E 139°44'0 0.0
2017-Feb-25 13:34N 35°28' E 139°44'0 0.2
2017-Feb-25 12:33N 35°28' E 139°44'0 0.2
2017-Feb-25 11:33N 35°28' E 139°44'0 0.3
2017-Feb-25 10:33N 35°28' E 139°44'0 0.2
2017-Feb-25 09:33N 35°28' E 139°44'0 0.3
2017-Feb-25 08:34N 35°28' E 139°44'0 0.3
2017-Feb-25 07:34N 35°28' E 139°44'0 0.1
2017-Feb-25 06:33N 35°28' E 139°44'0 0.1
2017-Feb-25 05:33N 35°28' E 139°44'0 0.1
2017-Feb-25 04:34N 35°28' E 139°44'0 0.3
2017-Feb-25 03:33N 35°28' E 139°44'0 0.0
2017-Feb-25 02:33N 35°28' E 139°44'0 0.3
2017-Feb-25 01:34N 35°28' E 139°44'2 2.1
2017-Feb-25 00:33N 35°27' E 139°42'0 0.0
2017-Feb-24 23:33N 35°27' E 139°42'0 0.0
2017-Feb-24 22:34N 35°27' E 139°42'2 2.2
2017-Feb-24 21:33N 35°29' E 139°40'5 4.9
2017-Feb-24 20:34N 35°24' E 139°42'7 7.0
2017-Feb-24 19:33N 35°17' E 139°41'0 0.0
2017-Feb-24 18:33N 35°17' E 139°41'0 0.0
2017-Feb-24 17:33N 35°17' E 139°41'0 0.0
2017-Feb-24 16:33N 35°17' E 139°41'0 0.0
2017-Feb-24 15:33N 35°17' E 139°41'0 0.0
2017-Feb-24 14:30N 35°17' E 139°41'0 0.0
2017-Feb-24 13:30N 35°17' E 139°41'0 0.0
2017-Feb-24 12:32N 35°17' E 139°41'0 0.0
2017-Feb-24 11:33N 35°17' E 139°41'0 0.0
2017-Feb-24 10:29N 35°17' E 139°41'0 0.0
2017-Feb-24 09:33N 35°17' E 139°41'0 0.0
2017-Feb-24 08:33N 35°17' E 139°41'0 0.0
2017-Feb-24 07:33N 35°17' E 139°41'0 0.0
2017-Feb-24 06:33N 35°17' E 139°41'0 0.0
2017-Feb-24 05:33N 35°17' E 139°41'2 1.7
2017-Feb-24 04:32N 35°19' E 139°41'5 4.8
2017-Feb-24 03:33N 35°22' E 139°45'1110.5
2017-Feb-24 02:33N 35°11' E 139°47'4 4.3
2017-Feb-24 01:33N 35°16' E 139°45'4 4.3
2017-Feb-24 00:33N 35°17' E 139°41'0 0.0
2017-Feb-23 23:33N 35°17' E 139°41'0 0.0
2017-Feb-23 22:34N 35°17' E 139°41'0 0.0
2017-Feb-23 21:34N 35°17' E 139°41'0 0.0
2017-Feb-23 20:33N 35°17' E 139°41'0 0.0
2017-Feb-23 19:33N 35°17' E 139°41'0 0.0
2017-Feb-23 18:33N 35°17' E 139°41'0 0.0
2017-Feb-23 17:33N 35°17' E 139°41'0 0.0
2017-Feb-23 16:33N 35°17' E 139°41'0 0.0
2017-Feb-23 15:33N 35°17' E 139°41'0 0.0
2017-Feb-23 14:33N 35°17' E 139°41'0 0.0
2017-Feb-23 13:33N 35°17' E 139°41'0 0.0
2017-Feb-23 12:33N 35°17' E 139°41'0 0.0
2017-Feb-23 11:34N 35°17' E 139°41'0 0.0
2017-Feb-23 10:33N 35°17' E 139°41'0 0.0
2017-Feb-23 09:34N 35°17' E 139°41'0 0.0
2017-Feb-23 08:33N 35°17' E 139°41'0 0.0
2017-Feb-23 07:33N 35°17' E 139°41'0 0.0
2017-Feb-23 06:34N 35°17' E 139°41'0 0.0
2017-Feb-23 05:33N 35°17' E 139°41'0 0.0
2017-Feb-23 04:31N 35°17' E 139°41'0 0.0
2017-Feb-23 03:33N 35°17' E 139°41'0 0.0
2017-Feb-23 02:33N 35°17' E 139°41'0 0.0
2017-Feb-23 01:33N 35°17' E 139°41'0 0.0
2017-Feb-23 00:33N 35°17' E 139°41'0 0.0
2017-Feb-22 23:33N 35°17' E 139°41'1 1.0
2017-Feb-22 22:33N 35°18' E 139°42'4 1.5
2017-Feb-22 19:32N 35°13' E 139°43'6 6.1
2017-Feb-22 18:34N 35°19' E 139°43'5 4.7
2017-Feb-22 17:33N 35°23' E 139°40'0 0.0
2017-Feb-22 16:33N 35°23' E 139°40'0 0.0
2017-Feb-22 15:34N 35°23' E 139°40'0 0.0
2017-Feb-22 14:34N 35°23' E 139°40'1 1.3
2017-Feb-22 13:34N 35°24' E 139°39'1 1.3
2017-Feb-22 12:33N 35°23' E 139°40'0 0.0
2017-Feb-22 11:34N 35°23' E 139°40'0 0.0
2017-Feb-22 10:34N 35°23' E 139°40'0 0.0
2017-Feb-22 09:34N 35°23' E 139°40'0 0.0
2017-Feb-22 08:34N 35°23' E 139°40'0 0.0
2017-Feb-22 07:33N 35°23' E 139°40'4 3.9
2017-Feb-22 06:33N 35°19' E 139°40'0 0.2
2017-Feb-22 05:33N 35°19' E 139°40'0 0.3
2017-Feb-22 04:34N 35°19' E 139°40'2 1.1
2017-Feb-22 02:33N 35°17' E 139°41'2 1.8
2017-Feb-22 01:33N 35°18' E 139°39'2 1.9
2017-Feb-22 00:33N 35°17' E 139°41'0 0.0
2017-Feb-21 23:33N 35°17' E 139°41'0 0.0
2017-Feb-21 22:33N 35°17' E 139°41'0 0.0
2017-Feb-21 21:33N 35°17' E 139°41'0 0.0
2017-Feb-21 20:33N 35°17' E 139°41'0 0.0
2017-Feb-21 19:33N 35°17' E 139°41'0 0.0
2017-Feb-21 18:33N 35°17' E 139°41'0 0.0
2017-Feb-21 17:33N 35°17' E 139°41'0 0.0
2017-Feb-21 16:33N 35°17' E 139°41'0 0.0
2017-Feb-21 15:33N 35°17' E 139°41'0 0.0
2017-Feb-21 14:33N 35°17' E 139°41'0 0.0
2017-Feb-21 13:33N 35°17' E 139°41'0 0.0
2017-Feb-21 12:33N 35°17' E 139°41'0 0.0
2017-Feb-21 11:32N 35°17' E 139°41'0 0.0
2017-Feb-21 10:33N 35°17' E 139°41'0 0.0
2017-Feb-21 09:33N 35°17' E 139°41'0 0.0
2017-Feb-21 08:33N 35°17' E 139°41'0 0.0
2017-Feb-21 07:33N 35°17' E 139°41'0 0.0
2017-Feb-21 06:33N 35°17' E 139°41'2 1.9
2017-Feb-21 05:33N 35°18' E 139°39'2 2.2
2017-Feb-21 04:33N 35°18' E 139°42'2 0.5
2017-Feb-21 01:18N 35°17' E 139°41'5 6.5
2017-Feb-21 00:33N 35°22' E 139°42'1010.3
2017-Feb-20 23:33N 35°12' E 139°47'3 2.6
2017-Feb-20 22:33N 35°14' E 139°46'3 3.2
2017-Feb-20 21:33N 35°18' E 139°45'8 7.9
2017-Feb-20 20:33N 35°10' E 139°47'2 2.3
2017-Feb-20 19:33N 35°12' E 139°46'3 3.3
2017-Feb-20 18:33N 35°15' E 139°45'4 4.3
2017-Feb-20 17:33N 35°17' E 139°41'0 0.0
2017-Feb-20 16:33N 35°17' E 139°41'0 0.0
2017-Feb-20 15:33N 35°17' E 139°41'0 0.0
2017-Feb-20 14:33N 35°17' E 139°41'0 0.0
2017-Feb-20 13:33N 35°17' E 139°41'0 0.0
2017-Feb-20 12:33N 35°17' E 139°41'0 0.0
2017-Feb-20 11:33N 35°17' E 139°41'0 0.0
2017-Feb-20 10:33N 35°17' E 139°41'2 1.6
2017-Feb-20 09:33N 35°19' E 139°40'1 0.7
2017-Feb-20 08:33N 35°19' E 139°39'0 0.0
2017-Feb-20 07:33N 35°19' E 139°39'2 2.2
2017-Feb-20 06:34N 35°18' E 139°42'1 1.3
2017-Feb-20 05:33N 35°17' E 139°41'0 0.0
2017-Feb-20 04:32N 35°17' E 139°41'0 0.0
2017-Feb-20 03:33N 35°17' E 139°41'0 0.0
2017-Feb-20 02:27N 35°17' E 139°41'0 0.0
2017-Feb-20 01:32N 35°17' E 139°41'0 0.0
2017-Feb-20 00:33N 35°17' E 139°41'0 0.2
2017-Feb-19 23:33N 35°17' E 139°41'0 0.2
2017-Feb-19 22:33N 35°17' E 139°41'0 0.0
2017-Feb-19 21:33N 35°17' E 139°41'0 0.0
2017-Feb-19 20:33N 35°17' E 139°41'0 0.0
2017-Feb-19 19:33N 35°17' E 139°41'0 0.0
2017-Feb-19 18:33N 35°17' E 139°41'0 0.0
2017-Feb-19 17:33N 35°17' E 139°41'0 0.0
2017-Feb-19 16:33N 35°17' E 139°41'0 0.0
2017-Feb-19 15:33N 35°17' E 139°41'0 0.0
2017-Feb-19 14:33N 35°17' E 139°41'0 0.0
2017-Feb-19 13:33N 35°17' E 139°41'0 0.0
2017-Feb-19 12:33N 35°17' E 139°41'0 0.0
2017-Feb-19 11:33N 35°17' E 139°41'0 0.0
2017-Feb-19 10:33N 35°17' E 139°41'0 0.0
2017-Feb-19 09:33N 35°17' E 139°41'0 0.0
2017-Feb-19 08:33N 35°17' E 139°41'0 0.0
2017-Feb-19 07:33N 35°17' E 139°41'0 0.0
2017-Feb-19 06:33N 35°17' E 139°41'0 0.0
2017-Feb-19 05:33N 35°17' E 139°41'0 0.0
2017-Feb-19 04:33N 35°17' E 139°41'0 0.0
2017-Feb-19 03:33N 35°17' E 139°41'6 5.8
2017-Feb-19 02:33N 35°14' E 139°46'1111.2
2017-Feb-19 01:33N 35°25' E 139°43'5 4.5
2017-Feb-19 00:34N 35°20' E 139°42'7 6.9
2017-Feb-18 23:33N 35°13' E 139°43'0 0.2
2017-Feb-18 22:33N 35°13' E 139°43'0 0.0
2017-Feb-18 21:33N 35°13' E 139°43'4 4.2
2017-Feb-18 20:32N 35°17' E 139°45'4 4.6
2017-Feb-18 19:33N 35°22' E 139°43'5 4.9
2017-Feb-18 18:32N 35°17' E 139°41'0 0.0
2017-Feb-18 17:31N 35°17' E 139°41'0 0.0
2017-Feb-18 16:32N 35°17' E 139°41'0 0.0
2017-Feb-18 15:04N 35°17' E 139°41'0 0.0
2017-Feb-18 14:33N 35°17' E 139°41'0 0.0
2017-Feb-18 13:33N 35°17' E 139°41'  

Dump ship's entire track history